createdAt,value
2023-02-22T00:00:19.819Z,3.50
2023-02-22T00:02:48.433Z,3.50
2023-02-22T00:05:16.899Z,3.40
2023-02-22T00:07:44.666Z,3.40
2023-02-22T00:10:14.357Z,3.30
2023-02-22T00:12:42.433Z,3.30
2023-02-22T00:15:11.860Z,3.30
2023-02-22T00:17:38.507Z,3.30
2023-02-22T00:20:08.173Z,3.20
2023-02-22T00:22:34.847Z,3.10
2023-02-22T00:25:01.543Z,3.00
2023-02-22T00:27:28.214Z,3.00
2023-02-22T00:29:56.541Z,3.00
2023-02-22T00:32:23.969Z,2.90
2023-02-22T00:34:56.471Z,2.90
2023-02-22T00:37:23.195Z,2.90
2023-02-22T00:39:50.576Z,3.00
2023-02-22T00:42:18.118Z,3.00
2023-02-22T00:44:44.858Z,2.90
2023-02-22T00:47:11.523Z,3.00
2023-02-22T00:49:38.955Z,3.00
2023-02-22T00:52:05.925Z,3.00
2023-02-22T00:54:41.121Z,3.00
2023-02-22T00:57:08.776Z,3.00
2023-02-22T00:59:35.489Z,2.80
2023-02-22T01:02:02.155Z,2.70
2023-02-22T01:04:28.826Z,2.60
2023-02-22T01:06:55.921Z,2.60
2023-02-22T01:09:22.887Z,2.60
2023-02-22T01:11:57.691Z,2.60
2023-02-22T01:14:26.628Z,2.60
2023-02-22T01:16:54.393Z,2.60
2023-02-22T01:19:21.846Z,2.70
2023-02-22T01:21:49.091Z,2.60
2023-02-22T01:24:16.502Z,2.60
2023-02-22T01:26:43.555Z,2.60
2023-02-22T01:29:15.193Z,2.60
2023-02-22T01:31:44.092Z,2.60
2023-02-22T01:34:11.679Z,2.60
2023-02-22T01:36:39.954Z,2.60
2023-02-22T01:39:06.624Z,2.60
2023-02-22T01:41:40.723Z,2.60
2023-02-22T01:44:33.750Z,2.60
2023-02-22T01:47:03.460Z,2.60
2023-02-22T01:49:33.966Z,2.50
2023-02-22T01:52:02.604Z,2.50
2023-02-22T01:54:31.603Z,2.50
2023-02-22T01:57:15.695Z,2.50
2023-02-22T01:59:44.571Z,2.50
2023-02-22T02:02:12.421Z,2.50
2023-02-22T02:04:42.603Z,2.50
2023-02-22T02:07:11.053Z,2.50
2023-02-22T02:09:47.914Z,2.50
2023-02-22T02:12:15.869Z,2.50
2023-02-22T02:14:43.855Z,2.40
2023-02-22T02:17:12.319Z,2.40
2023-02-22T02:19:55.584Z,2.40
2023-02-22T02:22:28.703Z,2.30
2023-02-22T02:25:05.105Z,2.30
2023-02-22T02:27:50.686Z,2.20
2023-02-22T02:30:29.136Z,2.20
2023-02-22T02:33:02.228Z,2.10
2023-02-22T02:35:38.294Z,2.00
2023-02-22T02:38:20.250Z,2.00
2023-02-22T02:40:49.724Z,1.90
2023-02-22T02:43:26.349Z,1.90
2023-02-22T02:45:57.044Z,1.90
2023-02-22T02:48:26.372Z,1.90
2023-02-22T02:50:55.030Z,1.90
2023-02-22T02:53:25.201Z,2.00
2023-02-22T02:55:51.892Z,1.90
2023-02-22T02:58:20.966Z,2.00
2023-02-22T03:00:49.029Z,2.00
2023-02-22T03:03:21.690Z,2.00
2023-02-22T03:05:48.313Z,2.00
2023-02-22T03:08:15.007Z,2.00
2023-02-22T03:10:45.554Z,2.00
2023-02-22T03:13:31.012Z,2.00
2023-02-22T03:16:07.162Z,2.00
2023-02-22T03:18:49.109Z,2.00
2023-02-22T03:21:36.198Z,2.00
2023-02-22T03:24:16.700Z,2.00
2023-02-22T03:26:52.714Z,2.00
2023-02-22T03:29:20.504Z,1.90
2023-02-22T03:31:50.742Z,1.80
2023-02-22T03:34:20.824Z,1.80
2023-02-22T03:36:50.042Z,1.80
2023-02-22T03:39:18.487Z,1.70
2023-02-22T03:41:51.380Z,1.70
2023-02-22T03:44:20.966Z,1.80
2023-02-22T03:46:49.020Z,1.80
2023-02-22T03:49:42.021Z,1.70
2023-02-22T03:52:09.106Z,1.70
2023-02-22T03:54:35.772Z,1.80
2023-02-22T03:57:08.635Z,1.70
2023-02-22T03:59:35.951Z,1.80
2023-02-22T04:02:02.574Z,1.70
2023-02-22T04:04:29.336Z,1.70
2023-02-22T04:06:55.994Z,1.70
2023-02-22T04:09:22.715Z,1.60
2023-02-22T04:11:49.321Z,1.60
2023-02-22T04:14:16.084Z,1.60
2023-02-22T04:16:42.805Z,1.60
2023-02-22T04:19:09.459Z,1.60
2023-02-22T04:21:36.094Z,1.60
2023-02-22T04:24:02.790Z,1.60
2023-02-22T04:26:29.488Z,1.60
2023-02-22T04:28:56.053Z,1.50
2023-02-22T04:31:22.656Z,1.50
2023-02-22T04:33:49.308Z,1.50
2023-02-22T04:36:16.168Z,1.50
2023-02-22T04:38:43.307Z,1.50
2023-02-22T04:41:09.982Z,1.40
2023-02-22T04:43:36.753Z,1.40
2023-02-22T04:46:04.356Z,1.50
2023-02-22T04:48:31.324Z,1.50
2023-02-22T04:53:55.310Z,1.40
2023-02-22T04:56:21.996Z,1.40
2023-02-22T04:58:48.668Z,1.40
2023-02-22T05:01:16.731Z,1.40
2023-02-22T05:03:43.890Z,1.40
2023-02-22T05:06:12.406Z,1.30
2023-02-22T05:08:39.053Z,1.20
2023-02-22T05:11:05.725Z,1.20
2023-02-22T05:13:32.352Z,1.10
2023-02-22T05:15:59.009Z,1.10
2023-02-22T05:18:25.776Z,1.10
2023-02-22T05:20:52.574Z,1.10
2023-02-22T05:23:19.215Z,1.10
2023-02-22T05:25:45.993Z,1.10
2023-02-22T05:28:14.196Z,1.10
2023-02-22T05:30:41.212Z,1.10
2023-02-22T05:33:08.475Z,1.00
2023-02-22T05:35:35.155Z,0.90
2023-02-22T05:38:03.673Z,0.90
2023-02-22T05:40:30.625Z,0.90
2023-02-22T05:42:57.829Z,1.00
2023-02-22T05:45:25.491Z,1.00
2023-02-22T05:47:52.603Z,1.10
2023-02-22T05:50:19.853Z,1.10
2023-02-22T05:52:47.333Z,1.10
2023-02-22T05:55:15.040Z,1.20
2023-02-22T05:57:41.730Z,1.20
2023-02-22T06:00:08.726Z,1.10
2023-02-22T06:02:35.465Z,1.10
2023-02-22T06:05:02.065Z,1.10
2023-02-22T06:07:28.696Z,1.20
2023-02-22T06:09:55.357Z,1.20
2023-02-22T06:12:21.998Z,1.10
2023-02-22T06:14:48.651Z,1.10
2023-02-22T06:17:15.624Z,1.10
2023-02-22T06:19:42.332Z,1.10
2023-02-22T06:22:15.852Z,1.10
2023-02-22T06:24:42.515Z,1.10
2023-02-22T06:27:09.085Z,1.10
2023-02-22T06:29:35.763Z,1.20
2023-02-22T06:32:02.489Z,1.20
2023-02-22T06:34:29.161Z,1.20
2023-02-22T06:36:55.983Z,1.20
2023-02-22T06:39:22.708Z,1.30
2023-02-22T06:41:51.378Z,1.30
2023-02-22T06:44:18.118Z,1.30
2023-02-22T06:46:49.330Z,1.40
2023-02-22T06:49:15.978Z,1.40
2023-02-22T06:51:42.907Z,1.40
2023-02-22T06:54:09.660Z,1.50
2023-02-22T06:56:36.268Z,1.60
2023-02-22T06:59:02.996Z,1.70
2023-02-22T07:01:29.664Z,1.70
2023-02-22T07:03:56.572Z,1.80
2023-02-22T07:06:24.056Z,1.80
2023-02-22T07:08:50.738Z,1.80
2023-02-22T07:11:18.093Z,1.90
2023-02-22T07:13:44.879Z,2.00
2023-02-22T07:16:11.559Z,2.00
2023-02-22T07:18:38.651Z,2.00
2023-02-22T07:21:05.728Z,2.00
2023-02-22T07:23:32.320Z,1.90
2023-02-22T07:26:02.545Z,1.90
2023-02-22T07:28:29.310Z,2.00
2023-02-22T07:30:55.958Z,2.20
2023-02-22T07:33:22.588Z,2.20
2023-02-22T07:35:49.728Z,2.30
2023-02-22T07:38:17.493Z,2.30
2023-02-22T07:40:44.706Z,2.30
2023-02-22T07:43:18.549Z,2.30
2023-02-22T07:45:45.628Z,2.40
2023-02-22T07:48:12.653Z,2.50
2023-02-22T07:50:39.558Z,2.50
2023-02-22T07:53:07.829Z,2.50
2023-02-22T07:55:34.539Z,2.60
2023-02-22T07:58:02.579Z,2.60
2023-02-22T08:00:33.736Z,2.80
2023-02-22T08:03:01.451Z,2.90
2023-02-22T08:05:29.256Z,3.10
2023-02-22T08:07:55.916Z,3.20
2023-02-22T08:10:23.840Z,3.30
2023-02-22T08:12:50.949Z,3.40
2023-02-22T08:15:24.283Z,3.50
2023-02-22T08:17:51.106Z,3.60
2023-02-22T08:20:17.849Z,3.70
2023-02-22T08:22:44.723Z,3.90
2023-02-22T08:25:11.947Z,4.00
2023-02-22T08:27:38.582Z,4.10
2023-02-22T08:30:05.647Z,4.20
2023-02-22T08:32:32.422Z,4.30
2023-02-22T08:34:59.117Z,4.50
2023-02-22T08:37:25.765Z,4.60
2023-02-22T08:39:52.987Z,4.80
2023-02-22T08:42:19.660Z,4.90
2023-02-22T08:44:46.360Z,5.00
2023-02-22T08:47:13.097Z,5.10
2023-02-22T08:49:39.748Z,5.30
2023-02-22T08:52:06.352Z,5.40
2023-02-22T08:54:32.991Z,5.40
2023-02-22T08:56:59.655Z,5.60
2023-02-22T08:59:26.263Z,5.70
2023-02-22T09:01:53.021Z,5.80
2023-02-22T09:04:19.643Z,5.80
2023-02-22T09:06:51.667Z,5.90
2023-02-22T09:09:21.135Z,6.10
2023-02-22T09:11:52.987Z,6.20
2023-02-22T09:14:19.892Z,6.30
2023-02-22T09:16:46.534Z,6.50
2023-02-22T09:19:14.460Z,6.60
2023-02-22T09:21:41.222Z,6.70
2023-02-22T09:24:10.864Z,6.70
2023-02-22T09:26:39.397Z,6.80
2023-02-22T09:29:12.005Z,6.90
2023-02-22T09:31:39.737Z,6.90
2023-02-22T09:34:13.761Z,6.90
2023-02-22T09:36:44.071Z,7.00
2023-02-22T09:39:11.386Z,7.20
2023-02-22T09:41:55.980Z,7.30
2023-02-22T09:44:41.502Z,7.40
2023-02-22T09:47:14.258Z,7.40
2023-02-22T09:49:47.281Z,7.60
2023-02-22T09:52:20.986Z,7.70
2023-02-22T09:54:52.705Z,7.80
2023-02-22T09:57:26.035Z,8.00
2023-02-22T10:00:16.569Z,8.10
2023-02-22T10:03:03.524Z,8.10
2023-02-22T10:05:37.544Z,8.30
2023-02-22T10:08:08.230Z,8.40
2023-02-22T10:10:37.025Z,8.60
2023-02-22T10:13:28.812Z,8.60
2023-02-22T10:16:14.235Z,8.70
2023-02-22T10:18:44.070Z,8.80
2023-02-22T10:21:19.751Z,8.90
2023-02-22T10:23:53.695Z,8.90
2023-02-22T10:26:22.131Z,9.00
2023-02-22T10:28:59.608Z,9.00
2023-02-22T10:31:38.817Z,9.10
2023-02-22T10:34:10.150Z,9.10
2023-02-22T10:36:39.094Z,9.20
2023-02-22T10:39:26.015Z,9.30
2023-02-22T10:41:55.524Z,9.40
2023-02-22T10:44:22.156Z,9.50
2023-02-22T10:46:48.940Z,9.60
2023-02-22T10:49:18.684Z,9.70
2023-02-22T10:51:45.592Z,9.80
2023-02-22T10:54:20.347Z,9.90
2023-02-22T10:56:50.950Z,10.20
2023-02-22T10:59:36.940Z,10.20
2023-02-22T11:02:15.473Z,10.30
2023-02-22T11:04:53.009Z,10.30
2023-02-22T11:07:30.489Z,10.30
2023-02-22T11:10:01.328Z,10.30
2023-02-22T11:12:28.552Z,10.30
2023-02-22T11:14:55.779Z,10.50
2023-02-22T11:17:26.731Z,10.50
2023-02-22T11:19:53.609Z,10.50
2023-02-22T11:22:22.258Z,10.60
2023-02-22T11:24:50.894Z,10.70
2023-02-22T11:27:23.651Z,10.80
2023-02-22T11:29:50.918Z,10.90
2023-02-22T11:32:22.160Z,11.20
2023-02-22T11:35:00.201Z,11.30
2023-02-22T11:37:36.632Z,11.30
2023-02-22T11:40:06.197Z,11.40
2023-02-22T11:42:33.676Z,11.50
2023-02-22T11:45:09.436Z,11.60
2023-02-22T11:47:36.785Z,11.70
2023-02-22T11:50:10.573Z,11.70
2023-02-22T11:52:40.547Z,11.80
2023-02-22T11:55:32.755Z,11.80
2023-02-22T11:58:17.151Z,11.80
2023-02-22T12:00:43.855Z,11.80
2023-02-22T12:03:27.623Z,12.00
2023-02-22T12:06:07.206Z,12.10
2023-02-22T12:08:37.329Z,12.10
2023-02-22T12:11:03.962Z,12.00
2023-02-22T12:13:30.591Z,12.10
2023-02-22T12:16:09.565Z,12.20
2023-02-22T12:18:58.863Z,12.40
2023-02-22T12:21:26.304Z,12.40
2023-02-22T12:23:55.945Z,12.30
2023-02-22T12:26:37.539Z,12.40
2023-02-22T12:29:12.719Z,12.50
2023-02-22T12:31:41.630Z,12.70
2023-02-22T12:34:12.692Z,12.80
2023-02-22T12:36:45.485Z,12.80
2023-02-22T12:39:47.109Z,12.70
2023-02-22T12:42:21.369Z,12.80
2023-02-22T12:44:52.576Z,12.90
2023-02-22T12:47:23.115Z,13.00
2023-02-22T12:49:58.119Z,13.10
2023-02-22T12:52:40.021Z,13.20
2023-02-22T12:55:12.652Z,13.30
2023-02-22T12:57:47.567Z,13.20
2023-02-22T13:00:23.154Z,13.20
2023-02-22T13:03:01.632Z,13.30
2023-02-22T13:05:30.389Z,13.30
2023-02-22T13:08:05.794Z,13.30
2023-02-22T13:10:38.476Z,13.30
2023-02-22T13:13:27.016Z,13.40
2023-02-22T13:15:59.847Z,13.50
2023-02-22T13:18:40.150Z,13.60
2023-02-22T13:21:15.159Z,13.70
2023-02-22T13:24:04.749Z,13.90
2023-02-22T13:26:40.149Z,13.90
2023-02-22T13:29:16.417Z,13.90
2023-02-22T13:31:55.440Z,13.80
2023-02-22T13:34:30.999Z,14.00
2023-02-22T13:37:18.175Z,14.00
2023-02-22T13:39:57.196Z,14.00
2023-02-22T13:42:48.533Z,14.00
2023-02-22T13:45:18.031Z,13.90
2023-02-22T13:51:17.640Z,13.90
2023-02-22T13:57:17.146Z,13.80
2023-02-22T14:03:09.542Z,14.00
2023-02-22T14:05:36.379Z,14.10
2023-02-22T14:08:03.540Z,14.30
2023-02-22T14:10:46.350Z,14.30
2023-02-22T14:13:13.944Z,14.20
2023-02-22T14:16:09.536Z,14.10
2023-02-22T14:18:38.048Z,14.10
2023-02-22T14:21:10.622Z,14.10
2023-02-22T14:23:44.237Z,14.20
2023-02-22T14:26:11.300Z,14.20
2023-02-22T14:28:40.095Z,14.20
2023-02-22T14:31:08.914Z,14.30
2023-02-22T14:33:51.468Z,14.30
2023-02-22T14:36:23.638Z,14.10
2023-02-22T14:38:54.506Z,14.00
2023-02-22T14:41:26.511Z,14.10
2023-02-22T14:43:54.718Z,14.00
2023-02-22T14:46:24.123Z,13.90
2023-02-22T14:48:54.861Z,13.90
2023-02-22T14:51:26.513Z,13.80
2023-02-22T14:54:06.333Z,13.80
2023-02-22T14:56:36.186Z,13.70
2023-02-22T14:59:07.884Z,13.70
2023-02-22T15:04:26.588Z,13.60
2023-02-22T15:06:54.185Z,13.60
2023-02-22T15:09:28.524Z,13.60
2023-02-22T15:12:05.373Z,13.60
2023-02-22T15:14:37.517Z,13.60
2023-02-22T15:17:07.561Z,13.70
2023-02-22T15:19:37.137Z,13.70
2023-02-22T15:22:04.003Z,13.60
2023-02-22T15:24:32.532Z,13.50
2023-02-22T15:27:05.890Z,13.50
2023-02-22T15:29:36.085Z,13.40
2023-02-22T15:38:04.132Z,13.30
2023-02-22T15:40:43.055Z,13.30
2023-02-22T15:43:28.635Z,13.30
2023-02-22T15:45:56.177Z,13.20
2023-02-22T15:48:23.575Z,13.20
2023-02-22T15:51:04.133Z,13.10
2023-02-22T15:53:37.286Z,13.20
2023-02-22T15:56:06.186Z,13.20
2023-02-22T15:58:32.932Z,13.10
2023-02-22T16:01:07.415Z,13.00
2023-02-22T16:03:38.683Z,12.90
2023-02-22T16:06:09.972Z,12.90
2023-02-22T16:08:53.954Z,12.80
2023-02-22T16:11:21.201Z,12.80
2023-02-22T16:13:54.467Z,12.70
2023-02-22T16:16:22.761Z,12.60
2023-02-22T16:18:50.239Z,12.60
2023-02-22T16:21:18.084Z,12.50
2023-02-22T16:23:49.605Z,12.50
2023-02-22T16:26:25.311Z,12.50
2023-02-22T16:28:56.675Z,12.40
2023-02-22T16:31:29.420Z,12.20
2023-02-22T16:33:56.319Z,12.10
2023-02-22T16:36:24.410Z,12.00
2023-02-22T16:38:51.742Z,11.80
2023-02-22T16:41:19.887Z,11.80
2023-02-22T16:43:51.272Z,11.80
2023-02-22T16:46:22.166Z,11.70
2023-02-22T16:48:48.897Z,11.60
2023-02-22T16:51:18.873Z,11.50
2023-02-22T16:53:45.797Z,11.30
2023-02-22T16:56:16.115Z,11.30
2023-02-22T16:58:43.258Z,11.20
2023-02-22T17:01:10.044Z,11.10
2023-02-22T17:03:36.851Z,11.00
2023-02-22T17:06:03.620Z,10.90
2023-02-22T17:08:31.082Z,10.80
2023-02-22T17:10:58.089Z,10.70
2023-02-22T17:13:27.288Z,10.70
2023-02-22T17:15:57.392Z,10.60
2023-02-22T17:18:28.355Z,10.60
2023-02-22T17:20:56.262Z,10.50
2023-02-22T17:23:23.156Z,10.50
2023-02-22T17:25:59.139Z,10.40
2023-02-22T17:28:26.470Z,10.30
2023-02-22T17:30:54.334Z,10.20
2023-02-22T17:33:27.737Z,10.10
2023-02-22T17:35:55.306Z,10.00
2023-02-22T17:38:22.924Z,10.00
2023-02-22T17:40:52.006Z,9.90
2023-02-22T17:43:19.408Z,9.80
2023-02-22T17:45:46.676Z,9.80
2023-02-22T17:48:14.078Z,9.70
2023-02-22T17:50:41.833Z,9.60
2023-02-22T17:53:10.930Z,9.50
2023-02-22T17:55:41.533Z,9.50
2023-02-22T17:58:14.336Z,9.40
2023-02-22T18:00:46.802Z,9.40
2023-02-22T18:03:16.123Z,9.40
2023-02-22T18:05:51.163Z,9.40
2023-02-22T18:08:17.957Z,9.30
2023-02-22T18:10:47.805Z,9.20
2023-02-22T18:13:20.605Z,9.10
2023-02-22T18:15:53.440Z,9.10
2023-02-22T18:18:22.082Z,9.00
2023-02-22T18:20:51.419Z,8.90
2023-02-22T18:23:19.686Z,8.90
2023-02-22T18:26:03.903Z,8.80
2023-02-22T18:28:36.145Z,8.70
2023-02-22T18:31:09.293Z,8.60
2023-02-22T18:33:48.529Z,8.60
2023-02-22T18:36:35.346Z,8.50
2023-02-22T18:39:52.668Z,8.50
2023-02-22T18:42:52.739Z,8.40
2023-02-22T18:45:41.903Z,8.40
2023-02-22T18:50:51.347Z,8.30
2023-02-22T18:53:31.586Z,8.30
2023-02-22T18:56:03.962Z,8.30
2023-02-22T18:58:32.797Z,8.20
2023-02-22T19:01:03.079Z,8.10
2023-02-22T19:06:11.600Z,8.00
2023-02-22T19:09:21.897Z,8.00
2023-02-22T19:33:25.716Z,7.60
2023-02-22T19:51:08.848Z,7.20
2023-02-22T20:00:44.383Z,7.10
2023-02-22T20:03:28.396Z,7.10
2023-02-22T20:09:29.952Z,7.00
2023-02-22T20:11:57.204Z,6.90
2023-02-22T20:14:26.087Z,6.90
2023-02-22T20:16:58.515Z,6.80
2023-02-22T20:19:26.700Z,6.80
2023-02-22T20:21:55.839Z,6.80
2023-02-22T20:24:22.788Z,6.80
2023-02-22T20:26:49.858Z,6.70
2023-02-22T20:29:18.176Z,6.70
2023-02-22T20:32:37.263Z,6.70
2023-02-22T20:35:06.001Z,6.60
2023-02-22T20:44:42.050Z,6.30
2023-02-22T20:56:56.758Z,6.30
2023-02-22T20:57:02.749Z,6.30
2023-02-22T21:13:05.493Z,6.30
2023-02-22T21:15:33.926Z,6.30
2023-02-22T21:18:00.662Z,6.30
2023-02-22T21:20:27.350Z,6.20
2023-02-22T21:22:55.384Z,6.10
2023-02-22T21:25:26.550Z,6.00
2023-02-22T21:27:56.211Z,6.00
2023-02-22T21:30:22.817Z,6.00
2023-02-22T21:32:53.957Z,6.00
2023-02-22T21:35:21.711Z,6.00
2023-02-22T21:37:48.423Z,6.00
2023-02-22T21:40:19.237Z,5.90
2023-02-22T21:42:49.008Z,5.90
2023-02-22T21:45:18.422Z,6.00
2023-02-22T21:47:48.603Z,5.90
2023-02-22T21:50:16.521Z,5.90
2023-02-22T21:52:43.926Z,5.80
2023-02-22T21:55:10.961Z,5.90
2023-02-22T21:57:38.028Z,5.80
2023-02-22T22:00:17.567Z,5.80
2023-02-22T22:02:46.121Z,5.80
2023-02-22T22:05:17.896Z,5.90
2023-02-22T22:07:44.648Z,5.90
2023-02-22T22:10:16.801Z,5.90
2023-02-22T22:12:46.089Z,5.90
2023-02-22T22:15:16.364Z,5.80
2023-02-22T22:17:43.596Z,5.80
2023-02-22T22:20:11.276Z,5.80
2023-02-22T22:22:39.212Z,5.80
2023-02-22T22:25:06.527Z,5.80
2023-02-22T22:27:33.133Z,5.90
2023-02-22T22:30:01.767Z,5.90
2023-02-22T22:32:29.655Z,5.80
2023-02-22T22:34:59.234Z,5.90
2023-02-22T22:37:28.785Z,5.90
2023-02-22T22:39:55.447Z,5.80
2023-02-22T22:42:22.404Z,5.80
2023-02-22T22:44:50.466Z,5.70
2023-02-22T22:47:18.325Z,5.70
2023-02-22T22:49:45.615Z,5.70
2023-02-22T22:52:13.939Z,5.70
2023-02-22T22:54:41.899Z,5.70
2023-02-22T22:57:08.668Z,5.70
2023-02-22T22:59:36.533Z,5.60
2023-02-22T23:02:04.554Z,5.60
2023-02-22T23:04:31.246Z,5.50
2023-02-22T23:06:57.912Z,5.50
2023-02-22T23:09:26.227Z,5.50
2023-02-22T23:11:55.977Z,5.40
2023-02-22T23:14:24.195Z,5.40
2023-02-22T23:16:52.177Z,5.30
2023-02-22T23:19:19.623Z,5.30
2023-02-22T23:21:47.810Z,5.40
2023-02-22T23:24:18.850Z,5.30
2023-02-22T23:26:48.946Z,5.20
2023-02-22T23:29:19.597Z,5.10
2023-02-22T23:31:48.460Z,5.10
2023-02-22T23:34:20.999Z,5.10
2023-02-22T23:36:47.883Z,5.10
2023-02-22T23:39:15.458Z,5.10
2023-02-22T23:41:42.453Z,5.20
2023-02-22T23:44:17.368Z,5.20
2023-02-22T23:46:44.933Z,5.10
2023-02-22T23:49:11.583Z,5.10
2023-02-22T23:51:44.446Z,5.10
2023-02-22T23:54:14.981Z,5.10
2023-02-22T23:56:47.317Z,5.10
2023-02-22T23:59:14.492Z,5.10
